Aérodrome :
LOGIN :

S'inscrire | Disclaimer

   EN    FR    IT 

 










Légende :    VFR   VFR Marginal   IFR   IFR Intensif   IFR Très Intensif
Visi : 
Plafond : 
>= 8 km
>= 3000ft
5 à 8 km
1000 à 3000 ft
1500m à 5 km
500 à 1000 ft
800 à 1500m
200 à 500 ft
< 800m
< 200 ft
Symboles :   Orages  Brouillard  Fortes neiges  Fortes précipitations  Vent > 20 kt
SIGMETs :   Divers  Orages  Givrage  Turbulence  Onde Orograph.  Cendres Volcan.







- Altitude de l'aérodrome : 1202 ft
- Code IATA : IGS


ETSI - Ingolstadt

DERNIER METAR :
  • 201136Z 13007KT 4000 TSRA BKN020CB BKN070 14/11 Q1001 GRN BLU TEMPO YLO

METARs EXPIRÉS :
  • 201120Z 02008KT 6000 -TSRA FEW020 SCT025CB BKN070 17/12 Q1001 WHT BLU TEMPO YLO
  • 201113Z 36010KT 7000 -TSRA SCT025CB BKN070 17/11 Q1001 WHT BLU TEMPO YLO
  • 201020Z 34006KT 9999 SCT025CB BKN080 BKN120 18/11 Q1001 BLU BLU TEMPO WHT
  • 200920Z 01006KT 9999 SCT022 SCT070 BKN120 17/11 Q1001 BLU BLU TEMPO WHT

TAF AMD TAF ETSI
Valide du 20 à 11h jusqu'au 20 à 20h UTC


201123Z 2011/2020 02005KT 9999 NSW SCT020 BKN070 BKN120
TEMPO 2011/2020 VRB15G25KT 3000 TSRA BKN010 BKN020CB
Pas de NOTAMs connus pour ce terrain.
3 SIGMETs publiés pour la FIR München (EDMM) :
 
Orages fréquents avec grêle
EDMM SIGMET 5 VALID 201212/201410 EDZF
EDMM MUNCHEN FIR FRQ TSGR FCST APRX 20NM WID LINE BTN N5005 E01108 - N5123 E01028 TOP FL350 MOV SSW 20KT NC=
Orages noyés dans la masse
EDMM SIGMET 4 VALID 201030/201300 EDZF
EDMM MUNCHEN FIR EMBD TS FCST WI N4917 E01058 - N4901 E01157 - N4829 E01154 - N4845 E01003 - N4917 E01058 TOP FL300 MOV SW NC=
Orages fréquents avec grêle
EDMM SIGMET 1 VALID 201213/201410 EDZF
EDMM MUNCHEN FIR FRQ TSGR FCST APRX 20NM WID LINE BTN N5005 E01108 - N5122 E01032 TOP FL350 MOV SSW 20KT NC=



MET'MAP, la Météo Aéronautique d'un coup d'oeil ! - Copyright ORBIFLY Décembre 2007 - Disclaimer

ORBIFLY MET'MAP TEAM :

Programmation & Développement : Alexandra Zaïnal
Conception & Développement : Baudouin d'Aumeries
Co-Programmation & Développement : Marc-Olivier Méhu
Soutien technique & logistique : Manuel Goepfert

Contact : metmap@orbifly.com




SOURCES & CREDITS :

   NOAA